Time;durP1;ratioP1;P1;durP2;ratioP2;P2;SDS_P1;SDS_P2;PMS_P1;PMS_P2;Temp;Humidity;BMP_temperature;BMP_pressure;BME280_temperature;BME280_humidity;BME280_pressure;Samples;Min_cycle;Max_cycle;Signal;HPM_P1;HPM_P2
2022/05/27 00:00:04;;;;;;;32.65;15.63;;;;;;;13.59;100.00;100047.17;1791234;80;21192;-82
2022/05/27 00:03:10;;;;;;;22.30;16.55;;;;;;;13.52;100.00;100045.24;1791438;80;21751;-83
2022/05/27 00:06:15;;;;;;;21.57;15.25;;;;;;;13.44;100.00;100047.30;1791510;80;21655;-83
2022/05/27 00:09:23;;;;;;;24.77;15.45;;;;;;;13.38;100.00;100051.70;1791150;80;21158;-83
2022/05/27 00:12:28;;;;;;;27.37;14.63;;;;;;;13.33;100.00;100047.87;1789688;79;22076;-83
2022/05/27 00:15:33;;;;;;;22.02;15.53;;;;;;;13.29;100.00;100044.66;1790963;80;21189;-83
2022/05/27 00:18:39;;;;;;;21.20;16.87;;;;;;;13.26;100.00;100043.68;1791191;80;21154;-83
2022/05/27 00:21:46;;;;;;;29.95;18.50;;;;;;;13.23;100.00;100039.45;1790904;80;21146;-82
2022/05/27 00:24:51;;;;;;;26.35;19.07;;;;;;;13.21;100.00;100037.91;1791474;80;21201;-82
2022/05/27 00:27:59;;;;;;;24.10;18.05;;;;;;;13.16;100.00;100033.55;1791502;80;21573;-83
2022/05/27 00:31:05;;;;;;;23.57;17.60;;;;;;;13.13;100.00;100040.83;1791563;80;21142;-83
2022/05/27 00:34:10;;;;;;;28.85;18.50;;;;;;;13.08;100.00;100040.55;1791555;80;21213;-83
2022/05/27 00:37:15;;;;;;;26.62;18.05;;;;;;;13.00;100.00;100032.80;1791326;80;21204;-83
2022/05/27 00:40:21;;;;;;;24.90;18.67;;;;;;;12.94;100.00;100048.70;1790855;80;21197;-83
2022/05/27 00:43:27;;;;;;;23.65;19.57;;;;;;;12.91;100.00;100046.34;1790266;80;21201;-83
2022/05/27 00:46:36;;;;;;;24.35;19.02;;;;;;;12.88;100.00;100048.09;1791421;80;21193;-83
2022/05/27 00:49:44;;;;;;;24.67;19.37;;;;;;;12.87;100.00;100049.16;1791268;80;21158;-83
2022/05/27 00:52:49;;;;;;;27.95;18.92;;;;;;;12.85;100.00;100044.39;1791446;80;21169;-83
2022/05/27 00:56:00;;;;;;;27.85;20.62;;;;;;;12.82;100.00;100042.03;1788898;80;21236;-83
2022/05/27 00:59:10;;;;;;;26.17;21.70;;;;;;;12.79;100.00;100056.14;1791194;80;21193;-83
2022/05/27 01:02:15;;;;;;;26.50;18.90;;;;;;;12.75;100.00;100039.73;1791593;80;21205;-83
2022/05/27 01:05:25;;;;;;;27.30;19.30;;;;;;;12.70;100.00;100045.84;1791254;80;21165;-83
2022/05/27 01:08:31;;;;;;;27.73;19.45;;;;;;;12.66;100.00;100050.55;1790095;80;21201;-83
2022/05/27 01:12:06;;;;;;;29.42;21.52;;;;;;;12.60;100.00;100047.20;1791455;80;21448;-83
2022/05/27 01:15:37;;;;;;;24.32;20.08;;;;;;;12.56;100.00;100045.36;1791285;80;21213;-83
2022/05/27 01:22:31;;;;;;;29.75;22.05;;;;;;;12.47;100.00;100035.06;1791187;80;21177;-83
2022/05/27 01:26:09;;;;;;;31.33;19.30;;;;;;;12.47;100.00;100030.10;1789639;80;21178;-83
2022/05/27 01:29:56;;;;;;;30.30;21.73;;;;;;;12.45;100.00;100031.65;1789491;80;21720;-83
2022/05/27 01:33:26;;;;;;;25.82;21.55;;;;;;;12.42;100.00;100025.20;1790466;80;21181;-83
2022/05/27 01:37:05;;;;;;;23.42;19.32;;;;;;;12.39;100.00;100027.48;1790442;80;21193;-83
2022/05/27 01:40:21;;;;;;;26.07;21.85;;;;;;;12.31;100.00;100025.70;1790194;80;21786;-83
2022/05/27 01:43:50;;;;;;;24.15;20.17;;;;;;;12.22;100.00;100032.34;1778216;80;21761;-83
2022/05/27 01:46:56;;;;;;;28.17;19.92;;;;;;;12.15;100.00;100030.06;1790136;80;21149;-83
2022/05/27 01:50:08;;;;;;;24.02;20.70;;;;;;;12.11;100.00;100026.85;1791195;80;21221;-83
2022/05/27 01:53:20;;;;;;;30.23;23.00;;;;;;;12.08;100.00;100031.86;1790662;80;21209;-83
2022/05/27 01:56:42;;;;;;;26.55;21.30;;;;;;;12.00;100.00;100029.58;1789413;80;21181;-83
2022/05/27 02:00:02;;;;;;;27.82;22.75;;;;;;;11.95;100.00;100030.68;1791246;80;21632;-83
2022/05/27 02:03:34;;;;;;;27.82;22.48;;;;;;;11.87;100.00;100028.05;1791134;80;21177;-83
2022/05/27 02:06:43;;;;;;;28.65;22.75;;;;;;;11.82;100.00;100031.00;1732438;80;21202;-83
2022/05/27 02:09:40;;;;;;;30.35;23.47;;;;;;;11.78;100.00;100029.16;1790847;80;21240;-83
2022/05/27 02:12:40;;;;;;;31.55;22.35;;;;;;;11.74;100.00;100027.83;1791024;80;21193;-83
2022/05/27 02:15:51;;;;;;;31.50;23.45;;;;;;;11.71;100.00;100032.31;1791215;80;21201;-83
2022/05/27 02:19:04;;;;;;;25.60;19.62;;;;;;;11.69;100.00;100036.63;1791018;80;21747;-83
2022/05/27 02:22:30;;;;;;;31.77;24.80;;;;;;;11.70;100.00;100034.73;1791481;80;21220;-83
2022/05/27 02:25:44;;;;;;;30.32;23.27;;;;;;;11.72;100.00;100038.14;1756517;80;21720;-77
2022/05/27 02:28:56;;;;;;;26.55;19.48;;;;;;;11.75;100.00;100040.48;1791056;80;21193;-77
2022/05/27 02:32:05;;;;;;;33.20;24.50;;;;;;;11.80;100.00;100042.12;1790833;80;21177;-77
2022/05/27 02:35:21;;;;;;;32.55;24.35;;;;;;;11.83;100.00;100041.80;1791000;80;21161;-77
2022/05/27 02:38:27;;;;;;;29.15;23.57;;;;;;;11.86;100.00;100049.64;1791199;80;21181;-77
2022/05/27 02:41:50;;;;;;;27.67;21.62;;;;;;;11.91;100.00;100048.55;1791119;80;21146;-77
2022/05/27 02:45:12;;;;;;;27.07;21.12;;;;;;;12.00;100.00;100050.66;1791023;80;21577;-77
2022/05/27 02:48:46;;;;;;;28.10;20.05;;;;;;;12.14;100.00;100053.89;1790684;80;21198;-83
2022/05/27 02:52:07;;;;;;;27.37;20.72;;;;;;;12.24;100.00;100054.95;1791518;80;21185;-77
2022/05/27 02:55:21;;;;;;;25.50;19.70;;;;;;;12.26;100.00;100052.33;1791150;80;21869;-83
2022/05/27 02:58:26;;;;;;;25.82;19.55;;;;;;;12.28;100.00;100057.64;1739850;82;21554;-83
2022/05/27 03:01:24;;;;;;;28.95;21.23;;;;;;;12.30;100.00;100060.19;1740796;82;21687;-83
2022/05/27 03:04:16;;;;;;;31.27;22.85;;;;;;;12.34;100.00;100062.34;1741836;82;21812;-83
2022/05/27 03:07:29;;;;;;;28.07;19.42;;;;;;;12.41;100.00;100057.77;1743746;82;21184;-83
2022/05/27 03:11:00;;;;;;;25.23;19.67;;;;;;;12.56;100.00;100054.11;1743132;82;21199;-83
2022/05/27 03:14:39;;;;;;;21.73;17.70;;;;;;;12.81;100.00;100054.06;1742461;82;21191;-83
2022/05/27 03:17:53;;;;;;;20.20;16.52;;;;;;;13.24;100.00;100053.50;1743459;82;22027;-83
2022/05/27 03:21:20;;;;;;;20.75;15.38;;;;;;;13.70;100.00;100058.99;1733551;82;21189;-83
2022/05/27 03:24:42;;;;;;;17.10;14.73;;;;;;;14.12;100.00;100054.33;1733889;82;21169;-83
2022/05/27 03:28:01;;;;;;;16.42;14.13;;;;;;;14.53;100.00;100061.14;1732149;82;21232;-83
2022/05/27 03:31:27;;;;;;;15.38;13.30;;;;;;;14.91;100.00;100061.94;1733696;82;21176;-83
2022/05/27 03:34:57;;;;;;;14.07;11.25;;;;;;;15.28;100.00;100053.57;1741300;82;21164;-83
2022/05/27 03:38:22;;;;;;;13.58;11.25;;;;;;;15.64;100.00;100057.80;1726816;82;21180;-83
2022/05/27 03:41:31;;;;;;;14.93;10.65;;;;;;;15.93;100.00;100060.05;1743104;82;21255;-83
2022/05/27 03:44:37;;;;;;;13.80;10.78;;;;;;;16.16;98.55;100055.94;1743799;82;21228;-83
2022/05/27 03:47:43;;;;;;;13.45;10.43;;;;;;;16.35;96.71;100059.12;1743795;82;21231;-83
2022/05/27 03:50:49;;;;;;;12.90;10.00;;;;;;;16.54;94.22;100061.47;1733472;82;21140;-83
2022/05/27 03:54:04;;;;;;;14.50;8.38;;;;;;;16.71;92.59;100061.27;1732475;82;21574;-83
2022/05/27 03:57:09;;;;;;;10.40;8.55;;;;;;;16.93;90.25;100059.54;1736290;80;21252;-83
2022/05/27 04:00:15;;;;;;;11.10;8.33;;;;;;;17.07;88.26;100063.35;1762807;81;21707;-83
2022/05/27 04:03:20;;;;;;;12.13;7.62;;;;;;;17.18;86.49;100057.66;1767873;80;21193;-83
2022/05/27 04:06:25;;;;;;;12.35;7.97;;;;;;;17.17;84.77;100057.86;1789067;80;21201;-83
2022/05/27 04:09:27;;;;;;;9.50;7.08;;;;;;;17.16;84.17;100058.94;1787608;80;21704;-83
2022/05/27 04:12:31;;;;;;;8.30;6.75;;;;;;;17.24;84.36;100061.43;1788809;80;21783;-82
2022/05/27 04:15:37;;;;;;;9.80;6.75;;;;;;;17.40;83.45;100052.55;1789333;80;21154;-83
2022/05/27 04:18:43;;;;;;;8.75;6.35;;;;;;;17.57;82.38;100056.97;1787977;80;21224;-83
2022/05/27 04:21:50;;;;;;;8.00;5.42;;;;;;;17.69;81.27;100063.95;1789055;80;21197;-83
2022/05/27 04:24:58;;;;;;;8.23;5.53;;;;;;;17.83;80.36;100065.54;1788827;80;21536;-82
2022/05/27 04:28:03;;;;;;;6.28;4.33;;;;;;;17.97;78.85;100056.01;1788241;80;21758;-83
2022/05/27 04:31:09;;;;;;;6.35;4.53;;;;;;;18.13;77.34;100065.63;1788952;80;21197;-83
2022/05/27 04:34:17;;;;;;;7.50;4.22;;;;;;;18.31;77.01;100060.63;1772685;80;21153;-83
2022/05/27 04:37:26;;;;;;;5.80;3.72;;;;;;;18.51;75.82;100059.80;1762873;81;21172;-82
2022/05/27 04:40:32;;;;;;;5.05;3.20;;;;;;;18.69;73.89;100053.41;1761428;81;21188;-82
2022/05/27 04:43:38;;;;;;;3.92;2.77;;;;;;;18.89;71.62;100051.71;1761945;81;21232;-82
2022/05/27 04:46:45;;;;;;;6.17;2.92;;;;;;;19.05;69.70;100046.86;1763007;81;21518;-83
2022/05/27 04:49:53;;;;;;;5.55;2.40;;;;;;;19.22;67.24;100050.33;1761760;80;21192;-83
2022/05/27 04:52:59;;;;;;;4.40;2.77;;;;;;;19.35;64.94;100048.72;1762806;81;21742;-83
2022/05/27 04:56:03;;;;;;;5.95;2.22;;;;;;;19.42;64.65;100052.20;1763018;81;21144;-82
2022/05/27 04:59:09;;;;;;;3.87;2.42;;;;;;;19.60;63.89;100051.28;1763770;81;21192;-82
2022/05/27 05:02:15;;;;;;;6.42;2.62;;;;;;;19.85;63.81;100044.06;1767318;81;21204;-82
2022/05/27 05:05:22;;;;;;;7.87;2.20;;;;;;;20.12;63.56;100048.00;1762071;81;21322;-82
2022/05/27 05:08:39;;;;;;;3.67;2.25;;;;;;;20.35;61.55;100057.36;1762260;81;21465;-83
2022/05/27 05:11:46;;;;;;;9.00;2.00;;;;;;;20.56;61.59;100049.78;1760530;81;21173;-83
2022/05/27 05:14:51;;;;;;;7.17;2.58;;;;;;;20.73;59.85;100055.91;1762243;81;21204;-82
2022/05/27 05:17:57;;;;;;;4.35;1.90;;;;;;;20.86;60.66;100050.89;1762700;81;21849;-82
2022/05/27 05:21:04;;;;;;;10.23;2.40;;;;;;;21.01;60.36;100050.31;1770600;81;21173;-83
2022/05/27 05:24:09;;;;;;;3.55;2.00;;;;;;;21.14;58.17;100051.38;1704809;82;21219;-83
2022/05/27 05:27:08;;;;;;;10.38;2.08;;;;;;;21.25;55.33;100050.16;1733770;82;21580;-82
2022/05/27 05:30:01;;;;;;;5.83;1.98;;;;;;;21.17;53.54;100048.62;1739344;82;21201;-82
2022/05/27 05:33:07;;;;;;;3.15;1.95;;;;;;;21.05;53.57;100040.92;1700115;83;21203;-83
2022/05/27 05:36:14;;;;;;;5.42;1.80;;;;;;;21.00;53.35;100041.68;1759198;81;21672;-83
2022/05/27 05:39:19;;;;;;;7.97;2.02;;;;;;;21.04;54.20;100041.48;1745796;82;21201;-83
2022/05/27 05:42:25;;;;;;;9.38;1.55;;;;;;;21.22;54.00;100037.61;1746471;82;21181;-83
2022/05/27 05:45:31;;;;;;;2.52;1.70;;;;;;;21.33;52.83;100033.08;1745846;82;21174;-83
2022/05/27 05:48:36;;;;;;;4.47;1.70;;;;;;;21.38;51.92;100037.33;1744341;82;21776;-82
2022/05/27 05:51:42;;;;;;;4.60;1.77;;;;;;;21.39;52.35;100036.23;1743791;82;21206;-82
2022/05/27 05:54:40;;;;;;;4.50;2.00;;;;;;;21.54;53.49;100030.89;1745304;82;21561;-78
2022/05/27 05:57:49;;;;;;;4.30;1.60;;;;;;;21.68;51.39;100023.87;1744818;82;21206;-78
2022/05/27 06:00:57;;;;;;;4.00;1.60;;;;;;;21.76;50.50;100035.67;1744395;81;21835;-78
2022/05/27 06:04:02;;;;;;;7.45;2.30;;;;;;;21.79;49.95;100026.27;1733151;82;21293;-77
2022/05/27 06:07:08;;;;;;;5.22;2.50;;;;;;;21.79;50.08;100024.04;1724973;83;21214;-77
2022/05/27 06:10:14;;;;;;;4.12;1.65;;;;;;;21.92;50.72;100028.69;1723847;83;21186;-77
2022/05/27 06:13:20;;;;;;;5.50;1.75;;;;;;;22.07;49.35;100033.61;1724515;83;21182;-77
2022/05/27 06:16:25;;;;;;;5.72;2.00;;;;;;;22.12;49.29;100023.95;1723850;82;21202;-77
2022/05/27 06:19:30;;;;;;;5.95;1.75;;;;;;;22.11;48.99;100036.20;1769557;80;21220;-77
2022/05/27 06:22:36;;;;;;;6.40;1.60;;;;;;;22.09;49.17;100040.30;1735584;81;21195;-77
2022/05/27 06:25:43;;;;;;;4.83;1.40;;;;;;;22.16;49.57;100031.22;1768481;80;21758;-77
2022/05/27 06:35:34;;;;;;;5.67;1.95;;;;;;;22.08;48.45;100030.27;1755452;80;21173;-78
2022/05/27 06:38:40;;;;;;;2.02;1.42;;;;;;;22.04;48.79;100035.51;1753686;80;21190;-78
2022/05/27 06:41:45;;;;;;;2.10;1.20;;;;;;;22.19;48.94;100022.36;1754714;81;21158;-83
2022/05/27 06:44:53;;;;;;;8.43;2.20;;;;;;;22.20;47.37;100023.48;1764673;80;21184;-83
2022/05/27 06:47:53;;;;;;;4.30;1.85;;;;;;;22.18;48.41;100024.86;1739462;82;21232;-83
2022/05/27 06:50:51;;;;;;;8.93;2.22;;;;;;;22.21;48.76;100025.74;1740096;82;21693;-83
2022/05/27 06:53:51;;;;;;;7.78;1.67;;;;;;;22.28;47.21;100026.92;1771208;81;21736;-83
2022/05/27 06:56:47;;;;;;;1.95;1.32;;;;;;;22.26;47.33;100024.96;1771994;80;21144;-83
2022/05/27 06:59:32;;;;;;;4.00;2.00;;;;;;;22.24;47.74;100016.84;1775101;80;21149;-83
2022/05/27 07:02:24;;;;;;;2.95;1.50;;;;;;;22.25;47.62;100028.83;1747472;79;21875;-83
2022/05/27 07:05:30;;;;;;;6.53;1.60;;;;;;;22.35;48.19;100027.02;1713372;83;21169;-83
2022/05/27 07:08:36;;;;;;;5.62;1.65;;;;;;;22.49;47.64;100023.28;1709568;84;21212;-82
2022/05/27 07:11:44;;;;;;;8.05;1.90;;;;;;;22.62;46.03;100028.97;1728892;82;21685;-83
2022/05/27 07:14:49;;;;;;;3.62;1.40;;;;;;;22.77;46.10;100030.52;1759057;80;21169;-83
2022/05/27 07:17:56;;;;;;;2.10;1.30;;;;;;;22.89;46.24;100019.25;1748411;80;21189;-83
2022/05/27 07:21:08;;;;;;;5.17;1.45;;;;;;;23.01;45.65;100028.30;1773539;81;21173;-83
2022/05/27 07:24:18;;;;;;;4.40;1.80;;;;;;;23.06;45.89;100023.31;1773323;81;21236;-84
2022/05/27 07:27:22;;;;;;;3.12;1.22;;;;;;;23.21;45.43;100020.09;1773570;80;21219;-84
2022/05/27 07:30:28;;;;;;;3.55;1.60;;;;;;;23.40;45.19;100028.05;1772008;81;21184;-83
2022/05/27 07:33:33;;;;;;;4.03;1.22;;;;;;;23.58;43.50;100034.60;1775304;80;21121;-83
2022/05/27 07:36:38;;;;;;;6.58;2.35;;;;;;;23.60;42.26;100024.55;1707373;83;21359;-83
2022/05/27 07:39:43;;;;;;;5.87;1.30;;;;;;;23.54;42.60;100027.88;1721446;82;21172;-83
2022/05/27 07:42:50;;;;;;;5.05;1.77;;;;;;;23.45;42.91;100021.94;1724958;82;21155;-83
2022/05/27 07:45:56;;;;;;;2.90;1.20;;;;;;;23.44;42.64;100012.45;1755207;80;21180;-84
2022/05/27 07:49:04;;;;;;;4.53;1.37;;;;;;;23.43;43.81;100020.52;1726013;81;21160;-84
2022/05/27 07:52:12;;;;;;;5.37;1.57;;;;;;;23.25;42.03;100014.83;1706116;83;21265;-84
2022/05/27 07:55:18;;;;;;;7.58;1.27;;;;;;;23.25;42.03;100014.83;1716507;82;21234;-83
2022/05/27 07:58:24;;;;;;;4.65;1.10;;;;;;;23.23;42.32;100014.79;1702552;84;21258;-83
2022/05/27 08:01:29;;;;;;;1.80;1.00;;;;;;;23.34;42.66;100019.36;1743988;82;21229;-84
2022/05/27 08:04:35;;;;;;;3.20;1.20;;;;;;;23.40;42.81;100021.07;1767148;80;21165;-84
2022/05/27 08:07:40;;;;;;;7.90;1.52;;;;;;;23.42;42.46;100027.21;1733566;82;21213;-84
2022/05/27 08:10:46;;;;;;;3.58;1.25;;;;;;;23.41;41.89;100015.21;1775326;80;21168;-84
2022/05/27 08:13:52;;;;;;;7.30;2.17;;;;;;;23.43;42.87;100021.91;1760873;80;21695;-84
2022/05/27 08:16:58;;;;;;;3.35;1.42;;;;;;;23.55;41.82;100021.73;1759224;80;21127;-83
2022/05/27 08:20:04;;;;;;;3.55;0.98;;;;;;;23.71;42.28;100017.41;1775364;80;21189;-83
2022/05/27 08:23:10;;;;;;;5.58;1.00;;;;;;;23.88;39.96;100017.77;1769182;80;21770;-84
2022/05/27 08:26:16;;;;;;;4.33;1.00;;;;;;;23.91;39.49;100019.47;1738282;81;21173;-84
2022/05/27 08:29:21;;;;;;;7.17;1.17;;;;;;;23.95;39.83;100018.38;1783714;80;21203;-84
2022/05/27 08:32:26;;;;;;;3.92;0.90;;;;;;;23.92;39.21;100025.90;1772925;80;21841;-84
2022/05/27 08:38:54;;;;;;;8.05;1.40;;;;;;;23.50;39.10;100007.19;1774386;79;21224;-84
2022/05/27 08:42:39;;;;;;;9.75;1.22;;;;;;;23.33;40.00;100024.63;1781361;79;21795;-84
2022/05/27 08:46:01;;;;;;;3.17;0.80;;;;;;;23.40;39.51;100020.52;1772753;80;21255;-78
2022/05/27 08:49:09;;;;;;;2.75;0.78;;;;;;;23.34;39.55;100027.17;1770971;80;21173;-77
2022/05/27 08:52:19;;;;;;;2.30;0.80;;;;;;;23.30;40.24;100018.21;1775344;79;21213;-78
2022/05/27 08:59:27;;;;;;;2.30;0.75;;;;;;;23.39;39.04;100021.62;1725999;81;21252;-77
2022/05/27 09:02:56;;;;;;;1.90;0.70;;;;;;;23.48;38.77;100015.00;1777409;79;21198;-77
2022/05/27 09:06:05;;;;;;;5.87;1.10;;;;;;;23.53;37.91;100013.63;1722981;82;21165;-77
2022/05/27 09:09:11;;;;;;;4.87;0.68;;;;;;;23.54;38.80;100006.09;1781054;80;21872;-78
2022/05/27 09:12:35;;;;;;;10.50;0.82;;;;;;;23.55;38.97;99996.61;1726640;82;21201;-78
2022/05/27 09:16:02;;;;;;;2.40;0.80;;;;;;;23.59;38.39;99999.15;1782560;80;21720;-78
2022/05/27 09:19:38;;;;;;;2.42;0.80;;;;;;;23.59;38.24;100009.75;1783718;80;21205;-78
2022/05/27 09:23:15;;;;;;;1.75;0.90;;;;;;;23.55;38.80;99997.44;1783408;80;21190;-84
2022/05/27 09:26:28;;;;;;;2.47;0.70;;;;;;;23.68;39.37;99995.61;1780214;79;21197;-82
2022/05/27 09:29:51;;;;;;;3.27;0.80;;;;;;;23.88;37.17;99993.47;1733342;81;21205;-84
2022/05/27 09:33:01;;;;;;;1.80;0.70;;;;;;;23.92;36.27;100001.59;1783170;80;21236;-84
2022/05/27 09:36:04;;;;;;;2.50;0.78;;;;;;;23.85;36.32;99999.59;1780449;80;21977;-84
2022/05/27 09:39:11;;;;;;;3.33;0.82;;;;;;;23.83;37.20;100005.18;1777781;80;21509;-84
2022/05/27 09:42:35;;;;;;;1.92;0.70;;;;;;;23.78;38.53;99999.57;1735216;81;21157;-84
2022/05/27 09:45:36;;;;;;;2.70;0.90;;;;;;;23.75;37.37;100005.12;1737501;82;21137;-84
2022/05/27 09:48:44;;;;;;;2.05;0.98;;;;;;;23.70;36.85;99997.56;1777590;79;21210;-83
2022/05/27 09:51:51;;;;;;;5.83;1.25;;;;;;;23.80;37.15;99992.59;1768952;80;21724;-84
2022/05/27 09:55:04;;;;;;;6.55;0.82;;;;;;;23.82;37.23;99983.40;1766939;80;21747;-78
2022/05/27 09:58:11;;;;;;;2.00;0.90;;;;;;;23.83;37.59;99989.82;1729473;81;21165;-77
2022/05/27 10:01:38;;;;;;;0.98;0.68;;;;;;;23.91;36.94;99978.97;1760666;80;21166;-78
2022/05/27 10:04:42;;;;;;;3.42;1.00;;;;;;;24.00;36.45;99977.91;1769106;79;21145;-77
2022/05/27 10:08:00;;;;;;;3.20;0.53;;;;;;;24.04;36.07;99974.81;1781864;79;21201;-77
2022/05/27 10:11:41;;;;;;;5.65;0.90;;;;;;;24.12;36.48;99980.45;1761483;80;21526;-77
2022/05/27 10:14:47;;;;;;;1.60;0.70;;;;;;;24.25;35.56;99965.13;1775980;80;21167;-77
2022/05/27 10:17:53;;;;;;;2.15;0.80;;;;;;;24.35;35.32;99979.13;1727540;80;21138;-77
2022/05/27 10:21:23;;;;;;;1.40;0.68;;;;;;;24.30;33.57;99977.16;1761526;80;21435;-77
2022/05/27 10:24:38;;;;;;;6.03;0.70;;;;;;;24.22;34.74;99961.75;1751103;80;21147;-77
2022/05/27 10:27:52;;;;;;;1.55;0.72;;;;;;;24.30;35.53;99965.98;1759678;80;21177;-77
2022/05/27 10:31:04;;;;;;;2.08;0.80;;;;;;;24.39;34.26;99964.36;1771831;81;21236;-77
2022/05/27 10:34:09;;;;;;;2.02;0.75;;;;;;;24.36;35.29;99955.12;1762469;80;21585;-77
2022/05/27 10:37:36;;;;;;;0.78;0.55;;;;;;;24.39;35.83;99955.97;1782534;80;21241;-77
2022/05/27 10:40:53;;;;;;;2.92;0.90;;;;;;;24.60;34.96;99956.83;1783447;80;21198;-77
2022/05/27 10:43:56;;;;;;;2.17;0.60;;;;;;;24.82;34.12;99958.55;1784851;79;21190;-77
2022/05/27 10:46:55;;;;;;;2.98;0.70;;;;;;;24.93;34.08;99948.47;1738761;81;21184;-77
2022/05/27 10:50:11;;;;;;;3.15;0.82;;;;;;;24.98;33.63;99945.70;1784762;79;21161;-77
2022/05/27 10:53:50;;;;;;;1.15;0.62;;;;;;;24.96;34.29;99942.32;1781570;79;21170;-77
2022/05/27 11:04:37;;;;;;;3.40;0.80;;;;;;;25.25;32.27;99930.56;1783210;79;21727;-77
2022/05/27 11:08:04;;;;;;;2.47;0.80;;;;;;;25.32;33.43;99930.30;1783042;79;21173;-77
2022/05/27 11:11:26;;;;;;;1.35;0.60;;;;;;;25.44;32.38;99932.20;1778765;80;21197;-77
2022/05/27 11:15:12;;;;;;;1.52;0.75;;;;;;;25.35;32.29;99926.91;1775581;79;21688;-77
2022/05/27 11:18:46;;;;;;;1.57;0.65;;;;;;;25.44;32.21;99921.84;1772538;80;21173;-77
2022/05/27 11:22:02;;;;;;;5.72;0.70;;;;;;;25.55;32.19;99924.08;1714027;82;21147;-77
2022/05/27 11:25:38;;;;;;;1.80;0.55;;;;;;;25.60;32.00;99924.06;1735854;82;21185;-77
2022/05/27 11:29:01;;;;;;;1.85;0.60;;;;;;;25.51;32.19;99921.56;1717447;82;21228;-77
2022/05/27 11:32:20;;;;;;;4.83;0.80;;;;;;;25.40;32.68;99915.70;1743702;81;21149;-77
2022/05/27 11:35:39;;;;;;;;;;;;;;;25.30;32.68;99912.92;1771640;79;21661;-77
2022/05/27 11:39:12;;;;;;;2.58;0.78;;;;;;;25.18;32.69;99912.68;1780571;80;20578;-77
2022/05/27 11:42:27;;;;;;;1.20;0.50;;;;;;;25.03;32.73;99921.07;1725299;82;21802;-77
2022/05/27 11:45:37;;;;;;;3.33;0.60;;;;;;;25.19;33.25;99907.36;1757913;80;21165;-77
2022/05/27 11:49:04;;;;;;;1.70;0.70;;;;;;;25.56;30.75;99914.55;1722546;81;21216;-77
2022/05/27 11:52:42;;;;;;;4.65;0.70;;;;;;;25.70;31.33;99917.02;1770002;80;21208;-83
2022/05/27 11:56:24;;;;;;;1.98;0.60;;;;;;;25.80;31.60;99911.96;1754017;81;21257;-84
2022/05/27 11:59:36;;;;;;;2.42;0.70;;;;;;;25.95;32.44;99919.45;1784336;80;21178;-83
2022/05/27 12:03:03;;;;;;;1.60;0.60;;;;;;;26.04;31.45;99912.69;1754165;80;21268;-84
2022/05/27 12:06:19;;;;;;;3.15;0.80;;;;;;;25.96;31.91;99912.72;1742964;81;21209;-83
2022/05/27 12:09:45;;;;;;;2.42;0.68;;;;;;;25.88;32.39;99914.17;1754378;81;21166;-84
2022/05/27 12:13:10;;;;;;;5.45;0.78;;;;;;;25.95;32.91;99908.25;1759045;80;21205;-84
2022/05/27 12:16:27;;;;;;;2.72;0.70;;;;;;;25.84;32.39;99905.23;1700210;84;21187;-83
2022/05/27 12:19:38;;;;;;;3.58;0.70;;;;;;;25.84;32.39;99905.23;1785228;80;21241;-83
2022/05/27 12:22:44;;;;;;;2.17;0.60;;;;;;;25.64;33.10;99909.77;1781877;80;21236;-84
2022/05/27 12:25:55;;;;;;;1.35;0.62;;;;;;;25.53;32.79;99910.06;1781601;80;21505;-84
2022/05/27 12:29:00;;;;;;;7.03;0.82;;;;;;;25.39;33.29;99905.62;1772298;79;21204;-84
2022/05/27 12:32:07;;;;;;;6.25;0.60;;;;;;;25.24;33.00;99893.91;1728271;81;21176;-83
2022/05/27 12:35:44;;;;;;;3.00;1.02;;;;;;;25.04;33.27;99902.33;1783066;80;21182;-83
2022/05/27 12:38:55;;;;;;;3.92;0.85;;;;;;;24.88;33.44;99899.52;1784292;79;21201;-77
2022/05/27 12:41:55;;;;;;;1.95;0.95;;;;;;;24.78;33.77;99908.48;1777787;79;21172;-83
2022/05/27 12:45:01;;;;;;;5.35;0.85;;;;;;;24.71;34.41;99902.62;1719122;82;21189;-84
2022/05/27 12:48:07;;;;;;;6.70;0.75;;;;;;;24.76;33.89;99900.94;1774632;79;21488;-77
2022/05/27 12:51:31;;;;;;;4.10;0.88;;;;;;;24.79;34.08;99896.17;1787709;80;21190;-84
2022/05/27 12:54:56;;;;;;;4.22;0.93;;;;;;;24.84;34.24;99905.42;1788324;80;21201;-77
2022/05/27 13:01:34;;;;;;;2.40;1.10;;;;;;;24.93;33.95;99900.08;1787828;80;21150;-84
2022/05/27 13:05:03;;;;;;;2.37;1.10;;;;;;;24.83;34.11;99898.12;1786459;80;21194;-84
2022/05/27 13:08:17;;;;;;;4.53;0.98;;;;;;;24.59;34.09;99891.42;1789049;78;21189;-83
2022/05/27 13:11:43;;;;;;;3.72;0.80;;;;;;;24.41;34.34;99896.98;1792439;80;21161;-83
2022/05/27 13:14:56;;;;;;;2.22;0.90;;;;;;;24.34;34.43;99889.42;1790971;80;21723;-84
2022/05/27 13:18:22;;;;;;;3.08;0.82;;;;;;;24.36;34.96;99892.77;1792950;78;21233;-84
2022/05/27 13:21:55;;;;;;;3.27;1.00;;;;;;;24.53;35.62;99893.94;1793591;80;21196;-83
2022/05/27 13:25:04;;;;;;;2.47;0.80;;;;;;;24.70;35.13;99888.36;1793397;80;21186;-84
2022/05/27 13:28:17;;;;;;;1.98;0.72;;;;;;;24.81;34.71;99886.39;1772239;80;21189;-84
2022/05/27 13:31:31;;;;;;;4.92;0.90;;;;;;;24.85;34.37;99889.47;1793671;80;21158;-83
2022/05/27 13:34:49;;;;;;;3.92;0.60;;;;;;;24.84;33.67;99872.39;1793268;80;21181;-84
2022/05/27 13:38:03;;;;;;;6.90;0.82;;;;;;;24.83;33.53;99880.50;1791966;78;21248;-77
2022/05/27 13:41:10;;;;;;;1.87;0.72;;;;;;;24.82;33.95;99871.28;1793527;80;21149;-77
2022/05/27 13:44:16;;;;;;;0.90;0.70;;;;;;;24.72;32.93;99869.33;1791960;78;21217;-77
2022/05/27 13:47:22;;;;;;;3.77;0.75;;;;;;;24.63;33.72;99876.60;1793320;78;21181;-77
2022/05/27 13:50:49;;;;;;;3.85;0.93;;;;;;;24.62;33.40;99877.73;1793546;80;21728;-78
2022/05/27 13:53:55;;;;;;;8.20;1.27;;;;;;;24.61;33.45;99877.45;1793536;78;21192;-77
2022/05/27 13:57:04;;;;;;;7.45;0.88;;;;;;;24.57;33.27;99871.30;1793331;78;21150;-77
2022/05/27 14:00:13;;;;;;;2.20;0.80;;;;;;;24.54;33.29;99865.70;1793610;80;21189;-77
2022/05/27 14:03:33;;;;;;;4.40;0.85;;;;;;;24.59;33.77;99874.08;1792695;78;21177;-77
2022/05/27 14:06:40;;;;;;;3.62;0.85;;;;;;;24.64;34.24;99869.88;1774231;80;21743;-77
2022/05/27 14:09:52;;;;;;;2.72;0.98;;;;;;;24.63;34.49;99864.02;1773039;80;21122;-83
2022/05/27 14:12:58;;;;;;;6.40;0.90;;;;;;;24.66;34.54;99866.83;1787444;80;22089;-77
2022/05/27 14:16:04;;;;;;;2.52;0.72;;;;;;;24.63;34.75;99858.99;1742356;82;21184;-77
2022/05/27 14:19:24;;;;;;;3.02;1.00;;;;;;;24.57;34.56;99859.55;1786376;80;21173;-77
2022/05/27 14:22:42;;;;;;;2.60;0.72;;;;;;;24.54;34.65;99860.11;1787633;80;21704;-77
2022/05/27 14:25:49;;;;;;;4.83;0.82;;;;;;;24.57;34.85;99848.94;1787992;80;21162;-77
2022/05/27 14:29:01;;;;;;;1.27;0.78;;;;;;;24.59;33.77;99848.92;1786166;80;21496;-76
2022/05/27 14:32:13;;;;;;;1.52;0.70;;;;;;;24.53;33.49;99848.66;1743238;82;21224;-76
2022/05/27 14:35:24;;;;;;;1.47;0.85;;;;;;;24.45;33.62;99853.39;1787550;80;21154;-76
2022/05/27 14:38:35;;;;;;;1.98;0.50;;;;;;;24.40;33.67;99854.23;1743429;82;21208;-76
2022/05/27 14:41:50;;;;;;;2.45;0.82;;;;;;;24.36;33.69;99846.11;1787736;80;21134;-77
2022/05/27 14:44:56;;;;;;;2.37;0.93;;;;;;;24.34;33.77;99846.09;1787877;80;21158;-77
2022/05/27 14:48:02;;;;;;;4.33;0.95;;;;;;;24.31;34.23;99846.64;1743749;82;21774;-76
2022/05/27 14:51:45;;;;;;;4.22;0.70;;;;;;;24.25;34.06;99840.22;1787967;80;21186;-76
2022/05/27 14:54:52;;;;;;;1.80;0.70;;;;;;;24.19;34.04;99837.98;1787958;80;21150;-76
2022/05/27 14:58:10;;;;;;;1.12;0.70;;;;;;;24.15;34.24;99844.41;1742503;82;21738;-76
2022/05/27 15:01:17;;;;;;;5.70;0.90;;;;;;;24.17;34.58;99840.76;1788024;80;21150;-77
2022/05/27 15:04:32;;;;;;;8.38;1.20;;;;;;;24.13;34.67;99833.48;1743664;82;21236;-76
2022/05/27 15:07:50;;;;;;;3.15;1.12;;;;;;;24.09;35.66;99832.91;1787625;80;21170;-76
2022/05/27 15:11:15;;;;;;;3.55;1.10;;;;;;;24.03;35.65;99835.43;1741100;82;21205;-76
2022/05/27 15:14:41;;;;;;;6.10;1.20;;;;;;;23.97;36.35;99834.59;1787912;80;21154;-76
2022/05/27 15:17:42;;;;;;;3.93;1.00;;;;;;;23.96;36.66;99831.52;1787074;80;21189;-76